Time;durP1;ratioP1;P1;durP2;ratioP2;P2;SDS_P1;SDS_P2;PMS_P1;PMS_P2;Temp;Humidity;BMP_temperature;BMP_pressure;BME280_temperature;BME280_humidity;BME280_pressure;Samples;Min_cycle;Max_cycle;Signal;HPM_P1;HPM_P2
2021/12/17 00:01:09;;;;;;;43.88;15.90;;;;;;;7.73;85.02;103895.16;5117491;27;20490;-68
2021/12/17 00:03:47;;;;;;;44.63;15.48;;;;;;;7.75;85.13;103906.63;5113643;27;20039;-68
2021/12/17 00:08:55;;;;;;;52.75;17.10;;;;;;;7.76;84.96;103905.78;5114410;27;20079;-67
2021/12/17 00:11:22;;;;;;;51.28;17.35;;;;;;;7.78;84.89;103911.06;5113403;27;20724;-67
2021/12/17 00:13:50;;;;;;;50.33;15.65;;;;;;;7.77;84.91;103914.53;5103891;27;20045;-67
2021/12/17 00:16:21;;;;;;;66.53;17.25;;;;;;;7.76;84.84;103915.38;5117434;27;20032;-67
2021/12/17 00:48:37;;;;;;;43.17;15.30;;;;;;;7.65;84.80;103903.66;5107082;28;20052;-67
2021/12/17 00:53:57;;;;;;;46.92;16.02;;;;;;;7.64;84.95;103896.59;5115519;28;20044;-67
2021/12/17 00:56:24;;;;;;;47.53;16.05;;;;;;;7.63;84.88;103887.84;5115159;27;20043;-67
2021/12/17 00:58:49;;;;;;;64.35;15.00;;;;;;;7.66;84.92;103890.59;5114142;28;20051;-68
2021/12/17 01:01:17;;;;;;;118.88;16.63;;;;;;;7.64;84.76;103887.00;5115741;28;20059;-66
2021/12/17 01:03:43;;;;;;;135.63;19.13;;;;;;;7.61;84.69;103894.78;5100933;28;21131;-65
2021/12/17 01:06:09;;;;;;;61.53;15.10;;;;;;;7.57;84.78;103885.06;5114784;27;20035;-66
2021/12/17 01:08:35;;;;;;;92.65;16.70;;;;;;;7.52;84.90;103887.53;5111715;28;20033;-66
2021/12/17 01:11:07;;;;;;;108.88;16.33;;;;;;;7.50;84.90;103881.34;5111308;28;20070;-66
2021/12/17 01:13:41;;;;;;;74.40;14.90;;;;;;;7.47;84.82;103875.97;5103453;28;20036;-67
2021/12/17 01:16:25;;;;;;;86.53;15.13;;;;;;;7.42;84.88;103872.34;5110274;27;20043;-67
2021/12/17 01:19:27;;;;;;;57.90;14.48;;;;;;;7.40;85.11;103880.16;5114235;28;20036;-65
2021/12/17 01:25:41;;;;;;;63.13;15.63;;;;;;;7.39;85.14;103874.84;5108947;27;20055;-67
2021/12/17 01:38:02;;;;;;;106.22;17.05;;;;;;;7.40;85.12;103869.66;5095392;28;20404;-69
2021/12/17 01:43:06;;;;;;;47.80;15.15;;;;;;;7.38;85.15;103880.94;5093308;28;20051;-68
2021/12/17 01:45:37;;;;;;;47.75;15.52;;;;;;;7.38;85.29;103866.06;5110095;27;20109;-69
2021/12/17 01:48:09;;;;;;;47.95;15.57;;;;;;;7.41;85.22;103868.81;5114356;27;20040;-69
2021/12/17 01:56:36;;;;;;;53.33;16.40;;;;;;;7.48;85.13;103869.03;5113692;27;20536;-69
2021/12/17 02:01:53;;;;;;;121.97;17.08;;;;;;;7.46;85.14;103866.31;5116150;27;20048;-68
2021/12/17 02:04:20;;;;;;;132.52;17.35;;;;;;;7.44;85.08;103874.16;5112086;28;20691;-67
2021/12/17 02:06:45;;;;;;;186.90;20.00;;;;;;;7.42;84.99;103882.84;5119633;27;20047;-67
2021/12/17 02:20:39;;;;;;;;;;;;;;;7.38;85.11;103889.69;5112808;28;20036;-67
2021/12/17 02:32:09;;;;;;;337.38;21.45;;;;;;;7.35;85.25;103908.00;5111401;27;20055;-67
2021/12/17 02:37:15;;;;;;;143.10;18.60;;;;;;;7.30;85.62;103899.97;5112340;28;20461;-67
2021/12/17 02:47:58;;;;;;;66.15;15.10;;;;;;;7.28;85.64;103896.41;5116457;27;20039;-68
2021/12/17 02:50:25;;;;;;;54.00;15.85;;;;;;;7.28;85.76;103904.28;5119667;27;20044;-67
2021/12/17 02:52:55;;;;;;;45.53;13.20;;;;;;;7.31;85.80;103898.22;5115823;27;20032;-68
2021/12/17 02:55:22;;;;;;;44.50;13.68;;;;;;;7.34;85.95;103898.34;5118237;28;20507;-67
2021/12/17 02:57:50;;;;;;;83.32;15.90;;;;;;;7.38;85.83;103901.94;5117525;28;20158;-68
2021/12/17 03:00:16;;;;;;;64.05;15.23;;;;;;;7.39;85.84;103907.22;5117214;27;20197;-67
2021/12/17 03:02:46;;;;;;;92.32;15.40;;;;;;;7.40;85.63;103897.66;5116655;28;20169;-69
2021/12/17 03:05:12;;;;;;;65.78;15.77;;;;;;;7.42;85.76;103898.59;5114928;28;20040;-67
2021/12/17 03:07:41;;;;;;;58.10;14.30;;;;;;;7.41;85.60;103902.94;5114562;27;20043;-69
2021/12/17 03:10:10;;;;;;;99.53;16.10;;;;;;;7.43;85.49;103909.13;5115659;28;20117;-67
2021/12/17 03:12:48;;;;;;;59.20;13.77;;;;;;;7.44;85.51;103905.66;5114153;28;20052;-67
2021/12/17 03:25:57;;;;;;;41.92;12.02;;;;;;;7.43;85.36;103888.13;5115612;27;20835;-66
2021/12/17 03:28:22;;;;;;;45.33;14.10;;;;;;;7.45;85.33;103891.69;5113077;28;20082;-68
2021/12/17 03:30:49;;;;;;;50.97;13.35;;;;;;;7.44;85.34;103889.91;5115494;28;20040;-67
2021/12/17 03:33:15;;;;;;;48.03;13.48;;;;;;;7.42;85.17;103891.59;5114733;28;20071;-66
2021/12/17 03:35:42;;;;;;;63.10;13.55;;;;;;;7.41;85.26;103892.44;5101637;28;20036;-66
2021/12/17 03:38:08;;;;;;;66.38;14.55;;;;;;;7.41;85.44;103886.31;5114768;28;20035;-66
2021/12/17 03:40:35;;;;;;;51.58;12.73;;;;;;;7.42;85.44;103891.59;5115004;28;20032;-66
2021/12/17 03:43:11;;;;;;;48.95;13.05;;;;;;;7.42;85.51;103893.34;5108414;28;20206;-67
2021/12/17 03:45:38;;;;;;;54.83;13.20;;;;;;;7.40;85.33;103901.16;5112862;27;20032;-67
2021/12/17 03:48:10;;;;;;;63.78;14.55;;;;;;;7.39;85.42;103899.34;5114475;28;20036;-70
2021/12/17 03:50:37;;;;;;;44.03;12.98;;;;;;;7.36;85.45;103888.78;5115564;28;20040;-70
2021/12/17 03:53:05;;;;;;;56.67;13.70;;;;;;;7.37;85.50;103894.91;5109161;28;20036;-69
2021/12/17 03:55:33;;;;;;;47.50;13.52;;;;;;;7.37;85.61;103893.19;5132598;27;20043;-69
2021/12/17 03:58:01;;;;;;;92.68;15.07;;;;;;;7.37;85.54;103894.91;5115057;28;20040;-69
2021/12/17 04:00:29;;;;;;;48.53;13.75;;;;;;;7.37;85.61;103889.66;5114964;28;20036;-69
2021/12/17 04:02:59;;;;;;;45.97;12.30;;;;;;;7.38;85.71;103887.06;5123615;27;20037;-67
2021/12/17 04:05:34;;;;;;;45.17;12.93;;;;;;;7.39;85.68;103886.22;5116261;27;20032;-67
2021/12/17 04:08:26;;;;;;;40.65;12.02;;;;;;;7.41;85.71;103892.44;5131389;27;20540;-67
2021/12/17 04:11:18;;;;;;;39.67;12.60;;;;;;;7.40;85.52;103885.41;5103660;27;20056;-64
2021/12/17 04:13:51;;;;;;;40.00;12.68;;;;;;;7.41;85.74;103886.31;5111132;28;20109;-64
2021/12/17 04:16:23;;;;;;;42.05;11.65;;;;;;;7.42;85.44;103891.59;5115896;27;20047;-64
2021/12/17 04:18:48;;;;;;;38.33;11.93;;;;;;;7.42;85.52;103888.97;5112228;28;20040;-64
2021/12/17 04:21:14;;;;;;;32.00;10.98;;;;;;;7.42;85.51;103894.22;5122827;27;20032;-66
2021/12/17 04:23:46;;;;;;;32.40;11.90;;;;;;;7.43;85.44;103885.50;5112336;27;20048;-65
2021/12/17 04:26:15;;;;;;;34.25;11.63;;;;;;;7.43;85.37;103890.75;5110812;28;20096;-66
2021/12/17 04:28:46;;;;;;;29.15;11.20;;;;;;;7.42;85.50;103890.72;5114458;28;20055;-68
2021/12/17 04:31:14;;;;;;;31.30;11.52;;;;;;;7.43;85.50;103893.38;5115271;27;20044;-66
2021/12/17 04:33:42;;;;;;;31.50;11.27;;;;;;;7.44;85.52;103889.91;5131134;27;20047;-66
2021/12/17 04:36:14;;;;;;;36.08;12.00;;;;;;;7.45;85.48;103891.69;5114385;28;20059;-66
2021/12/17 04:38:40;;;;;;;29.67;11.05;;;;;;;7.48;85.58;103895.28;5114535;28;20178;-66
2021/12/17 04:57:49;;;;;;;36.28;10.48;;;;;;;7.41;85.14;103892.44;5112982;28;20265;-68
2021/12/17 05:00:21;;;;;;;41.80;12.30;;;;;;;7.39;85.21;103883.63;5097226;28;20036;-68
2021/12/17 05:02:57;;;;;;;41.55;11.25;;;;;;;7.38;85.31;103879.19;5101937;27;20052;-68
2021/12/17 05:05:29;;;;;;;40.45;11.13;;;;;;;7.38;85.52;103883.56;5114800;27;20505;-66
2021/12/17 05:08:04;;;;;;;39.15;11.52;;;;;;;7.41;85.47;103891.56;5114107;27;20766;-69
2021/12/17 05:18:28;;;;;;;49.05;12.18;;;;;;;7.40;85.60;103884.53;5097045;28;20067;-65
2021/12/17 05:21:03;;;;;;;45.20;12.25;;;;;;;7.41;85.64;103879.31;5107474;27;20063;-66
2021/12/17 05:23:43;;;;;;;45.83;12.45;;;;;;;7.40;85.67;103885.41;5132292;27;20038;-65
2021/12/17 05:26:16;;;;;;;49.35;13.23;;;;;;;7.40;85.60;103893.28;5120199;27;20127;-67
2021/12/17 05:28:48;;;;;;;43.25;12.85;;;;;;;7.38;85.47;103886.19;5123059;27;20043;-65
2021/12/17 05:31:21;;;;;;;49.95;12.50;;;;;;;7.38;85.47;103894.94;5109527;27;20040;-67
2021/12/17 05:33:56;;;;;;;39.03;12.25;;;;;;;7.39;85.45;103893.22;5096892;28;20109;-66
2021/12/17 05:36:25;;;;;;;43.10;12.13;;;;;;;7.37;85.39;103895.81;5090467;28;20040;-64
2021/12/17 05:39:02;;;;;;;41.42;11.55;;;;;;;7.37;85.44;103906.31;5097099;28;20032;-65
2021/12/17 05:41:31;;;;;;;48.75;12.85;;;;;;;7.36;85.41;103893.13;5091440;28;20127;-65
2021/12/17 05:44:34;;;;;;;35.75;11.75;;;;;;;7.35;85.47;103894.88;5043840;28;20140;-65
2021/12/17 05:47:02;;;;;;;38.35;10.40;;;;;;;7.38;86.24;103894.94;5027688;28;20113;-68
2021/12/17 05:49:29;;;;;;;44.70;10.82;;;;;;;7.56;87.00;103899.91;5057584;28;20055;-64
2021/12/17 05:51:58;;;;;;;41.45;11.30;;;;;;;7.70;86.52;103902.06;5112514;27;20444;-68
2021/12/17 05:54:26;;;;;;;43.83;11.52;;;;;;;7.77;86.39;103898.78;5112689;28;20044;-64
2021/12/17 05:56:52;;;;;;;42.35;11.90;;;;;;;7.83;86.15;103906.88;5100140;28;20453;-64
2021/12/17 05:59:19;;;;;;;39.78;11.80;;;;;;;7.92;86.14;103907.13;5107484;28;20032;-62
2021/12/17 06:01:45;;;;;;;36.38;11.65;;;;;;;7.95;85.72;103902.78;5076818;28;20097;-66
2021/12/17 06:04:11;;;;;;;37.60;11.88;;;;;;;7.93;85.46;103900.13;5097203;28;20044;-65
2021/12/17 06:06:49;;;;;;;49.65;12.18;;;;;;;7.85;85.16;103894.63;5108562;28;20036;-66
2021/12/17 06:09:15;;;;;;;42.47;12.68;;;;;;;7.80;85.11;103891.00;5092353;28;20119;-63
2021/12/17 06:11:42;;;;;;;44.83;12.40;;;;;;;7.76;85.17;103900.53;5094550;27;20036;-64
2021/12/17 06:14:11;;;;;;;43.35;12.82;;;;;;;7.72;85.10;103898.63;5096718;28;20504;-66
2021/12/17 06:16:37;;;;;;;37.85;11.40;;;;;;;7.71;85.14;103895.97;5097020;28;20437;-66
2021/12/17 06:19:07;;;;;;;41.08;12.15;;;;;;;7.69;85.25;103895.91;5095904;28;20044;-64
2021/12/17 06:21:33;;;;;;;46.05;12.10;;;;;;;7.69;85.20;103895.03;5114394;27;20040;-67
2021/12/17 06:23:58;;;;;;;46.35;12.70;;;;;;;7.68;85.09;103898.50;5099925;28;24397;-65
2021/12/17 06:26:25;;;;;;;46.15;12.05;;;;;;;7.67;85.25;103908.13;5098693;28;20517;-66
2021/12/17 06:28:53;;;;;;;41.22;11.77;;;;;;;7.66;85.12;103910.69;5098955;28;20045;-68
2021/12/17 06:31:21;;;;;;;42.30;12.45;;;;;;;7.61;85.15;103903.56;5082054;28;20075;-67
2021/12/17 06:33:47;;;;;;;56.25;12.32;;;;;;;7.61;85.06;103913.16;5096351;28;20040;-66
2021/12/17 06:36:13;;;;;;;39.05;11.75;;;;;;;7.57;85.08;103914.81;5098508;28;20394;-68
2021/12/17 06:38:39;;;;;;;49.00;13.43;;;;;;;7.56;85.04;103914.78;5095992;27;20153;-68
2021/12/17 06:41:06;;;;;;;44.08;12.68;;;;;;;7.56;85.01;103917.41;5089064;27;20085;-67
2021/12/17 06:43:37;;;;;;;42.33;12.27;;;;;;;7.53;85.15;103917.28;5119567;27;20524;-66
2021/12/17 06:48:39;;;;;;;56.45;13.70;;;;;;;7.51;85.18;103922.50;5116723;27;20036;-67
2021/12/17 07:06:01;;;;;;;47.72;12.63;;;;;;;7.51;85.50;103905.84;5116325;27;20068;-66
2021/12/17 07:17:07;;;;;;;46.30;13.00;;;;;;;7.54;85.12;103905.94;5120183;27;20058;-67
2021/12/17 07:17:26;;;;;;;47.85;12.43;;;;;;;7.52;85.08;103897.13;5120000;27;20283;-69
2021/12/17 07:23:03;;;;;;;47.22;13.38;;;;;;;7.51;85.28;103885.75;5113537;28;20036;-68
2021/12/17 07:28:45;;;;;;;42.75;12.38;;;;;;;7.55;85.54;103907.75;5103484;27;20060;-66
2021/12/17 07:34:00;;;;;;;43.53;11.85;;;;;;;7.59;85.50;103899.09;5098383;28;20055;-67
2021/12/17 07:39:18;;;;;;;42.25;12.25;;;;;;;7.64;85.38;103897.53;5116550;28;20039;-70
2021/12/17 07:41:44;;;;;;;44.33;12.23;;;;;;;7.67;85.36;103908.13;5115955;28;28735;-68
2021/12/17 07:44:29;;;;;;;43.55;12.50;;;;;;;7.69;85.07;103913.41;5099197;28;20059;-69
2021/12/17 07:47:33;;;;;;;44.08;11.93;;;;;;;7.69;85.33;103918.66;5093218;28;20072;-67
2021/12/17 07:50:17;;;;;;;38.97;12.10;;;;;;;7.67;85.24;103923.88;5137415;27;20044;-66
2021/12/17 07:53:06;;;;;;;46.08;12.18;;;;;;;7.67;85.27;103928.22;5119180;27;20083;-66
2021/12/17 07:55:39;;;;;;;39.88;12.07;;;;;;;7.66;85.32;103924.72;5117572;27;20046;-67
2021/12/17 07:58:08;;;;;;;47.35;11.90;;;;;;;7.66;85.36;103924.72;5099029;28;20094;-67
2021/12/17 08:00:38;;;;;;;47.47;12.18;;;;;;;7.67;85.28;103933.47;5115987;28;20070;-66
2021/12/17 08:03:04;;;;;;;41.55;10.80;;;;;;;7.70;85.38;103923.97;5098675;28;20040;-66
2021/12/17 08:05:57;;;;;;;44.45;12.18;;;;;;;7.67;85.13;103916.00;5115115;28;20051;-66
2021/12/17 08:08:24;;;;;;;38.92;11.82;;;;;;;7.68;85.25;103909.88;5098449;28;20032;-65
2021/12/17 08:11:00;;;;;;;39.05;11.55;;;;;;;7.69;85.11;103918.66;5098564;28;20032;-67
2021/12/17 08:13:29;;;;;;;36.63;11.43;;;;;;;7.66;85.09;103915.94;5099562;27;20040;-67
2021/12/17 08:18:49;;;;;;;37.63;12.00;;;;;;;7.64;85.12;103921.16;5098646;28;20032;-68
2021/12/17 08:27:10;;;;;;;48.03;12.10;;;;;;;7.68;85.38;103927.38;5098498;28;20036;-70
2021/12/17 08:29:52;;;;;;;38.97;12.18;;;;;;;7.68;85.42;103927.38;5115801;28;20040;-66
2021/12/17 08:32:19;;;;;;;37.40;11.45;;;;;;;7.70;85.31;103917.81;5133861;27;20036;-67
2021/12/17 08:34:51;;;;;;;40.17;11.68;;;;;;;7.73;85.39;103924.06;5118660;27;20047;-68
2021/12/17 08:37:18;;;;;;;35.35;10.63;;;;;;;7.74;85.26;103931.09;5118241;27;20031;-69
2021/12/17 08:39:46;;;;;;;38.65;10.70;;;;;;;7.77;85.38;103932.91;5118869;27;20497;-66
2021/12/17 08:42:26;;;;;;;32.80;11.07;;;;;;;7.77;85.37;103930.28;5135010;27;20138;-66
2021/12/17 08:44:53;;;;;;;39.92;11.43;;;;;;;7.78;85.44;103930.34;5118534;27;20039;-66
2021/12/17 08:47:37;;;;;;;;;;;;;;;7.79;85.21;103936.50;5137970;27;20401;-66
2021/12/17 08:50:06;;;;;;;30.48;10.23;;;;;;;7.80;85.21;103940.91;5135741;27;19919;-66
2021/12/17 08:52:33;;;;;;;29.83;10.50;;;;;;;7.80;85.13;103946.16;5115634;27;20131;-66
2021/12/17 08:55:00;;;;;;;31.52;10.98;;;;;;;7.81;85.11;103958.44;5118379;27;20035;-66
2021/12/17 08:57:25;;;;;;;30.42;9.98;;;;;;;7.82;85.15;103961.94;5136364;27;20040;-70
2021/12/17 08:59:51;;;;;;;32.15;10.82;;;;;;;7.81;85.13;103957.53;5117979;27;20503;-66
2021/12/17 09:02:25;;;;;;;34.70;10.93;;;;;;;7.81;85.11;103963.69;5102647;27;20040;-66
2021/12/17 09:05:18;;;;;;;27.73;10.02;;;;;;;7.82;85.23;103949.72;5118017;27;20031;-66
2021/12/17 09:07:50;;;;;;;29.45;10.50;;;;;;;7.84;85.17;103953.28;5118006;27;20047;-65
2021/12/17 09:10:37;;;;;;;32.40;10.85;;;;;;;7.84;85.18;103957.66;5118389;27;20523;-67
2021/12/17 09:13:05;;;;;;;25.45;8.57;;;;;;;7.85;85.16;103956.81;5117988;27;20130;-68
2021/12/17 09:15:31;;;;;;;29.08;10.00;;;;;;;7.87;85.05;103958.63;5118434;27;20511;-68
2021/12/17 09:18:02;;;;;;;24.92;9.55;;;;;;;7.89;85.01;103963.91;5135249;27;20046;-66
2021/12/17 09:20:29;;;;;;;28.73;10.27;;;;;;;7.89;84.88;103956.94;5116059;27;20036;-68
2021/12/17 09:22:54;;;;;;;29.45;10.43;;;;;;;7.88;84.91;103964.78;5114633;28;20040;-67
2021/12/17 09:25:23;;;;;;;25.83;9.15;;;;;;;7.88;85.02;103960.41;5096800;28;20040;-65
2021/12/17 09:27:55;;;;;;;22.15;8.40;;;;;;;7.88;85.07;103960.41;5114388;28;20036;-67
2021/12/17 09:30:29;;;;;;;25.20;9.50;;;;;;;7.92;85.20;103971.91;5115784;28;20032;-68
2021/12/17 09:32:54;;;;;;;29.02;9.80;;;;;;;7.94;84.76;103964.97;5115019;28;36309;-69
2021/12/17 09:35:21;;;;;;;30.08;10.65;;;;;;;7.95;84.92;103974.63;5116297;27;20067;-67
2021/12/17 09:37:47;;;;;;;25.48;9.55;;;;;;;7.98;84.82;103981.72;5117879;27;20067;-66
2021/12/17 09:40:13;;;;;;;25.80;9.52;;;;;;;7.99;84.80;103978.25;5115593;28;20032;-69
2021/12/17 09:42:41;;;;;;;24.30;9.18;;;;;;;7.99;84.94;103981.75;5115213;28;20044;-67
2021/12/17 09:45:07;;;;;;;25.27;9.90;;;;;;;8.01;84.81;103981.81;5115676;28;20032;-67
2021/12/17 09:47:33;;;;;;;24.13;9.55;;;;;;;8.02;84.77;103975.72;5115845;28;20043;-66
2021/12/17 09:49:59;;;;;;;30.33;9.45;;;;;;;8.05;84.71;103981.97;5096225;28;40106;-67
2021/12/17 09:52:25;;;;;;;24.13;9.85;;;;;;;8.06;84.71;103986.38;5115753;27;20040;-66
2021/12/17 09:54:53;;;;;;;21.27;8.50;;;;;;;8.09;84.65;103986.44;5133815;27;20126;-66
2021/12/17 09:57:20;;;;;;;20.08;8.13;;;;;;;8.13;84.66;103994.44;5135043;27;20075;-66
2021/12/17 09:59:47;;;;;;;20.40;8.10;;;;;;;8.15;84.71;103991.00;5136294;27;20684;-66
2021/12/17 10:02:13;;;;;;;18.80;7.80;;;;;;;8.18;84.38;103998.97;5136244;27;20042;-67
2021/12/17 10:04:42;;;;;;;17.60;7.72;;;;;;;8.20;84.50;103996.38;5136307;27;20036;-68
2021/12/17 10:07:31;;;;;;;18.73;8.18;;;;;;;8.24;84.36;104003.53;5127370;27;20102;-67
2021/12/17 10:10:04;;;;;;;19.85;8.52;;;;;;;8.24;84.22;104001.78;5131899;27;20481;-67
2021/12/17 10:12:37;;;;;;;16.50;7.38;;;;;;;8.24;84.13;104006.16;5136050;27;20058;-68
2021/12/17 10:15:16;;;;;;;17.70;7.47;;;;;;;8.26;83.95;104014.09;5135698;27;20127;-67
2021/12/17 10:18:00;;;;;;;18.73;7.60;;;;;;;8.24;84.07;104014.91;5135827;27;20040;-66
2021/12/17 10:20:34;;;;;;;16.63;7.60;;;;;;;8.23;84.12;104009.63;5136052;27;20039;-68
2021/12/17 10:23:05;;;;;;;21.20;8.43;;;;;;;8.24;84.39;104008.78;5136400;27;20115;-67
2021/12/17 10:25:33;;;;;;;18.35;8.00;;;;;;;8.26;84.09;104004.47;5116747;27;20044;-66
2021/12/17 10:28:06;;;;;;;18.30;7.25;;;;;;;8.30;84.07;104006.34;5135723;27;20028;-66
2021/12/17 10:30:38;;;;;;;15.32;6.75;;;;;;;8.30;84.16;104000.19;5134168;27;20032;-67
2021/12/17 10:33:08;;;;;;;16.25;7.68;;;;;;;8.30;83.98;104005.47;5135697;27;20055;-69
2021/12/17 10:35:38;;;;;;;16.20;7.82;;;;;;;8.31;83.92;104010.75;5114796;27;20036;-67
2021/12/17 10:38:11;;;;;;;16.40;6.95;;;;;;;8.33;83.98;104006.44;5118751;27;20105;-67
2021/12/17 10:40:55;;;;;;;14.13;7.15;;;;;;;8.34;83.88;104008.22;5115321;28;20143;-66
2021/12/17 10:43:27;;;;;;;13.07;6.72;;;;;;;8.35;83.89;104006.47;5115372;28;20063;-70
2021/12/17 10:46:07;;;;;;;13.38;6.43;;;;;;;8.36;83.72;104010.88;5115332;28;20036;-67
2021/12/17 10:51:15;;;;;;;12.20;6.13;;;;;;;8.34;83.71;104002.09;5123802;27;20441;-66
2021/12/17 10:53:53;;;;;;;13.85;6.20;;;;;;;8.34;83.87;104000.34;5134807;27;20040;-67
2021/12/17 10:56:32;;;;;;;13.93;6.85;;;;;;;8.34;83.81;104008.22;5135508;27;20044;-66
2021/12/17 10:59:11;;;;;;;13.40;6.38;;;;;;;8.34;83.69;104008.22;5135312;27;20113;-67
2021/12/17 11:02:06;;;;;;;10.85;5.63;;;;;;;8.37;83.83;104008.31;5135306;27;20044;-66
2021/12/17 11:04:40;;;;;;;12.07;6.10;;;;;;;8.39;83.94;103996.09;5135743;27;20031;-67
2021/12/17 11:07:10;;;;;;;13.23;6.07;;;;;;;8.42;83.73;104000.56;5133367;27;20519;-67
2021/12/17 11:09:53;;;;;;;10.38;6.15;;;;;;;8.41;83.64;103996.16;5128200;27;20558;-67
2021/12/17 11:12:46;;;;;;;13.27;5.72;;;;;;;8.44;83.71;103992.72;5138320;27;20039;-69
2021/12/17 11:15:24;;;;;;;10.85;5.28;;;;;;;8.49;83.40;103991.16;5138480;27;20504;-67
2021/12/17 11:18:04;;;;;;;10.50;5.35;;;;;;;8.55;83.57;103999.22;5138218;27;20537;-68
2021/12/17 11:20:33;;;;;;;12.75;5.80;;;;;;;8.55;83.57;103996.59;5137702;27;20039;-66
2021/12/17 11:23:07;;;;;;;8.88;5.13;;;;;;;8.59;83.46;104005.44;5138600;27;20035;-66
2021/12/17 11:25:35;;;;;;;;;;;;;;;8.58;83.23;104003.66;5138725;27;20040;-65
2021/12/17 11:28:01;;;;;;;10.88;5.30;;;;;;;8.60;83.29;103996.72;5138689;27;19919;-66
2021/12/17 11:30:35;;;;;;;8.88;5.03;;;;;;;8.62;83.48;103995.91;5138569;27;20039;-66
2021/12/17 11:33:04;;;;;;;8.32;4.72;;;;;;;8.64;83.36;103999.47;5138751;27;20047;-69
2021/12/17 11:35:32;;;;;;;9.00;4.45;;;;;;;8.66;82.74;104000.41;5137182;27;20052;-66
2021/12/17 11:38:11;;;;;;;10.43;4.47;;;;;;;8.66;82.69;103997.78;5138349;27;20092;-68
2021/12/17 11:40:48;;;;;;;10.32;4.88;;;;;;;8.67;82.79;103998.66;5138178;27;20089;-67
2021/12/17 11:44:00;;;;;;;6.90;4.10;;;;;;;8.68;82.59;103997.81;5127238;27;20133;-70
2021/12/17 11:46:31;;;;;;;10.07;4.70;;;;;;;8.62;82.77;103989.75;5137094;27;20032;-68
2021/12/17 11:49:02;;;;;;;8.80;4.70;;;;;;;8.59;83.04;103990.56;5138253;27;20046;-67
2021/12/17 11:51:32;;;;;;;7.60;4.10;;;;;;;8.59;83.01;103992.28;5137856;27;20457;-67
2021/12/17 11:54:16;;;;;;;7.03;3.85;;;;;;;8.57;83.07;103997.53;5137533;27;20043;-69
2021/12/17 11:56:52;;;;;;;8.05;4.55;;;;;;;8.50;82.98;103993.81;5138186;27;20046;-69
2021/12/17 11:59:27;;;;;;;7.57;4.55;;;;;;;8.45;83.24;103995.38;5117849;27;20050;-67
2021/12/17 12:02:17;;;;;;;8.20;4.70;;;;;;;8.43;83.32;103989.22;5131177;27;20048;-70
2021/12/17 12:04:56;;;;;;;6.03;3.90;;;;;;;8.43;83.37;103989.22;5136856;27;20093;-69
2021/12/17 12:07:24;;;;;;;7.65;3.97;;;;;;;8.40;83.22;103992.63;5137234;27;20078;-67
2021/12/17 12:10:11;;;;;;;8.93;4.20;;;;;;;8.39;83.56;103992.59;5115811;27;40762;-68
2021/12/17 12:12:45;;;;;;;8.57;4.28;;;;;;;8.38;83.48;103991.69;5113514;27;26490;-67
2021/12/17 12:15:17;;;;;;;;;;;;;;;8.35;83.34;103986.34;5098298;28;22779;-67
2021/12/17 12:18:03;;;;;;;9.60;4.30;;;;;;;8.34;83.41;103981.06;5117056;28;19924;-67
2021/12/17 12:20:50;;;;;;;5.15;3.80;;;;;;;8.34;83.49;103984.56;5116461;27;20067;-67
2021/12/17 12:23:29;;;;;;;7.22;3.97;;;;;;;8.35;83.34;103980.19;5117094;28;20123;-69
2021/12/17 12:28:44;;;;;;;7.05;4.20;;;;;;;8.36;83.54;103977.63;5116855;27;20058;-69
2021/12/17 12:31:20;;;;;;;9.70;4.13;;;;;;;8.37;83.57;103976.78;5115478;28;35142;-67
2021/12/17 12:34:04;;;;;;;6.93;3.72;;;;;;;8.40;83.69;103974.22;5116765;27;20047;-69
2021/12/17 12:37:18;;;;;;;7.82;4.20;;;;;;;8.43;83.83;103975.16;5124767;27;20455;-67
2021/12/17 12:39:47;;;;;;;7.28;3.90;;;;;;;8.44;83.87;103972.59;5116977;28;20036;-68
2021/12/17 12:42:21;;;;;;;7.70;3.70;;;;;;;8.46;83.62;103970.00;5116846;28;20052;-70
2021/12/17 12:44:49;;;;;;;6.82;3.70;;;;;;;8.46;83.75;103976.13;5116725;28;20785;-68
2021/12/17 12:47:22;;;;;;;6.00;3.53;;;;;;;8.48;83.69;103968.34;5132627;27;20050;-67
2021/12/17 12:50:06;;;;;;;6.82;4.03;;;;;;;8.50;83.40;103967.53;5118424;27;20047;-67
2021/12/17 12:52:39;;;;;;;7.57;3.50;;;;;;;8.47;83.21;103970.06;5125086;27;20074;-67
2021/12/17 12:55:15;;;;;;;7.00;3.00;;;;;;;8.44;83.12;103974.31;5117537;27;20048;-67
2021/12/17 12:57:46;;;;;;;5.63;3.17;;;;;;;8.40;83.29;103968.06;5116361;28;20452;-69
2021/12/17 13:00:18;;;;;;;5.18;2.92;;;;;;;8.38;83.50;103970.66;5098305;28;20047;-70
2021/12/17 13:02:48;;;;;;;6.38;2.90;;;;;;;8.39;83.41;103969.78;5098558;28;20071;-67
2021/12/17 13:05:13;;;;;;;4.60;2.28;;;;;;;8.39;83.28;103974.19;5116407;28;20464;-69
2021/12/17 13:07:47;;;;;;;5.18;2.70;;;;;;;8.40;83.24;103974.22;5100335;28;42030;-67
2021/12/17 13:10:30;;;;;;;7.65;2.92;;;;;;;8.38;83.28;103970.66;5098120;28;20047;-67
2021/12/17 13:13:35;;;;;;;4.40;2.70;;;;;;;8.40;83.49;103963.69;5103014;28;20501;-67
2021/12/17 13:16:18;;;;;;;5.15;2.80;;;;;;;8.44;83.06;103961.16;5106658;28;20590;-67
2021/12/17 13:21:44;;;;;;;4.65;2.97;;;;;;;8.49;82.88;103956.97;5115375;28;20505;-68
2021/12/17 13:24:16;;;;;;;6.07;3.00;;;;;;;8.51;83.00;103964.06;5114544;28;20036;-67
2021/12/17 13:26:54;;;;;;;5.95;2.90;;;;;;;8.52;82.92;103965.84;5097813;28;20043;-71
2021/12/17 13:29:31;;;;;;;5.22;3.50;;;;;;;8.53;82.86;103970.25;5093861;28;20051;-68
2021/12/17 13:32:03;;;;;;;7.03;3.20;;;;;;;8.55;83.06;103965.03;5111255;28;20048;-69
2021/12/17 13:34:52;;;;;;;8.10;3.25;;;;;;;8.57;82.78;103957.16;5112297;28;20394;-69
2021/12/17 13:37:30;;;;;;;5.20;3.40;;;;;;;8.55;82.37;103950.13;5113929;28;20395;-69
2021/12/17 13:40:09;;;;;;;6.13;3.33;;;;;;;8.57;82.73;103955.44;5116089;28;20123;-70
2021/12/17 13:42:42;;;;;;;8.90;4.03;;;;;;;8.61;82.71;103966.94;5113543;28;20113;-67
2021/12/17 13:45:13;;;;;;;4.95;3.13;;;;;;;8.64;82.58;103953.88;5096742;28;20123;-69
2021/12/17 13:47:48;;;;;;;4.45;3.38;;;;;;;8.65;82.17;103948.66;5112913;28;20064;-70
2021/12/17 13:50:33;;;;;;;5.25;3.78;;;;;;;8.68;81.95;103956.63;5084657;28;20036;-67
2021/12/17 13:53:05;;;;;;;5.22;3.53;;;;;;;8.70;81.54;103951.41;5095357;28;20122;-69
2021/12/17 13:55:32;;;;;;;5.90;4.05;;;;;;;8.70;81.25;103947.03;5095369;28;20055;-70
2021/12/17 13:58:05;;;;;;;7.13;3.92;;;;;;;8.69;80.99;103944.34;5111204;28;20043;-69
2021/12/17 14:00:36;;;;;;;6.93;4.20;;;;;;;8.67;81.02;103946.97;5115584;28;20051;-70
2021/12/17 14:03:03;;;;;;;6.80;4.07;;;;;;;8.68;81.21;103940.84;5115697;28;20169;-70
2021/12/17 14:05:40;;;;;;;8.50;4.95;;;;;;;8.68;81.34;103946.13;5115409;28;20048;-70
2021/12/17 14:08:11;;;;;;;8.57;4.63;;;;;;;8.70;81.14;103943.50;5103541;28;20032;-68
2021/12/17 14:10:37;;;;;;;8.07;4.05;;;;;;;8.70;81.21;103939.13;5128041;27;20040;-69
2021/12/17 14:13:14;;;;;;;5.82;4.75;;;;;;;8.72;81.53;103938.28;5130740;27;20422;-68
2021/12/17 14:15:43;;;;;;;10.05;4.88;;;;;;;8.75;81.51;103933.13;5106078;28;20060;-68
2021/12/17 14:18:10;;;;;;;7.40;4.85;;;;;;;8.76;81.58;103938.41;5095244;28;20510;-67
2021/12/17 14:20:51;;;;;;;5.47;4.32;;;;;;;8.78;81.15;103928.81;5094929;28;20387;-67
2021/12/17 14:23:23;;;;;;;6.28;4.53;;;;;;;8.79;80.84;103922.72;5095072;28;20045;-67
2021/12/17 14:25:54;;;;;;;5.63;4.22;;;;;;;8.80;80.68;103926.25;5108293;28;20051;-66
2021/12/17 14:28:36;;;;;;;5.82;4.40;;;;;;;8.78;80.22;103933.22;5114876;28;20048;-69
2021/12/17 14:31:12;;;;;;;4.72;4.25;;;;;;;8.76;80.45;103942.78;5110291;28;20044;-66
2021/12/17 14:33:57;;;;;;;5.85;4.70;;;;;;;8.75;80.55;103949.78;5110178;28;20061;-68
2021/12/17 14:36:39;;;;;;;5.97;4.93;;;;;;;8.75;80.49;103946.28;5114052;28;20448;-67
2021/12/17 14:39:15;;;;;;;5.57;4.15;;;;;;;8.73;79.95;103947.97;5106461;28;20741;-67
2021/12/17 14:41:55;;;;;;;4.97;4.50;;;;;;;8.70;79.06;103944.41;5113684;28;20037;-68
2021/12/17 14:47:14;;;;;;;7.00;4.28;;;;;;;8.65;78.91;103959.16;5118212;28;20058;-67
2021/12/17 15:05:45;;;;;;;6.05;4.95;;;;;;;8.54;79.51;103948.38;5098393;28;20113;-68
2021/12/17 15:08:10;;;;;;;5.68;4.72;;;;;;;8.56;79.52;103945.78;5097792;28;20121;-69